sensor_id;sensor_type;location;lat;lon;timestamp;P1;durP1;ratioP1;P2;durP2;ratioP2
10805;SDS011;5455;53.224;6.000;2023-06-19T00:01:08;10.03;;;6.43;;
10805;SDS011;5455;53.224;6.000;2023-06-19T00:03:36;7.90;;;6.47;;
10805;SDS011;5455;53.224;6.000;2023-06-19T00:06:03;8.80;;;5.87;;
10805;SDS011;5455;53.224;6.000;2023-06-19T00:08:30;6.33;;;5.73;;
10805;SDS011;5455;53.224;6.000;2023-06-19T00:10:57;6.23;;;5.37;;
10805;SDS011;5455;53.224;6.000;2023-06-19T00:13:24;10.30;;;6.27;;
10805;SDS011;5455;53.224;6.000;2023-06-19T00:15:51;8.03;;;5.73;;
10805;SDS011;5455;53.224;6.000;2023-06-19T00:18:18;6.47;;;5.30;;
10805;SDS011;5455;53.224;6.000;2023-06-19T00:20:46;6.80;;;5.37;;
10805;SDS011;5455;53.224;6.000;2023-06-19T00:23:13;7.73;;;5.60;;
10805;SDS011;5455;53.224;6.000;2023-06-19T00:25:43;8.40;;;5.50;;
10805;SDS011;5455;53.224;6.000;2023-06-19T00:28:11;6.83;;;5.40;;
10805;SDS011;5455;53.224;6.000;2023-06-19T00:30:41;8.03;;;4.70;;
10805;SDS011;5455;53.224;6.000;2023-06-19T00:33:08;7.60;;;4.90;;
10805;SDS011;5455;53.224;6.000;2023-06-19T00:35:36;6.77;;;4.93;;
10805;SDS011;5455;53.224;6.000;2023-06-19T00:38:04;5.83;;;5.03;;
10805;SDS011;5455;53.224;6.000;2023-06-19T00:40:32;6.57;;;5.10;;
10805;SDS011;5455;53.224;6.000;2023-06-19T00:43:00;5.50;;;4.90;;
10805;SDS011;5455;53.224;6.000;2023-06-19T00:45:28;7.53;;;5.17;;
10805;SDS011;5455;53.224;6.000;2023-06-19T00:47:56;6.57;;;5.13;;
10805;SDS011;5455;53.224;6.000;2023-06-19T00:50:25;6.27;;;5.27;;
10805;SDS011;5455;53.224;6.000;2023-06-19T00:52:56;7.17;;;5.17;;
10805;SDS011;5455;53.224;6.000;2023-06-19T00:55:26;8.20;;;5.13;;
10805;SDS011;5455;53.224;6.000;2023-06-19T00:57:56;6.50;;;5.07;;
10805;SDS011;5455;53.224;6.000;2023-06-19T01:00:24;9.87;;;5.33;;
10805;SDS011;5455;53.224;6.000;2023-06-19T01:02:51;7.30;;;5.30;;
10805;SDS011;5455;53.224;6.000;2023-06-19T01:05:18;6.30;;;5.20;;
10805;SDS011;5455;53.224;6.000;2023-06-19T01:10:28;7.13;;;5.37;;
10805;SDS011;5455;53.224;6.000;2023-06-19T01:13:14;6.10;;;5.20;;
10805;SDS011;5455;53.224;6.000;2023-06-19T01:15:49;6.10;;;5.50;;
10805;SDS011;5455;53.224;6.000;2023-06-19T01:18:16;8.13;;;5.07;;
10805;SDS011;5455;53.224;6.000;2023-06-19T01:20:44;6.40;;;5.10;;
10805;SDS011;5455;53.224;6.000;2023-06-19T01:23:11;7.07;;;5.40;;
10805;SDS011;5455;53.224;6.000;2023-06-19T01:25:38;7.07;;;5.30;;
10805;SDS011;5455;53.224;6.000;2023-06-19T01:28:07;10.30;;;5.67;;
10805;SDS011;5455;53.224;6.000;2023-06-19T01:30:40;5.73;;;4.33;;
10805;SDS011;5455;53.224;6.000;2023-06-19T01:35:49;8.57;;;4.97;;
10805;SDS011;5455;53.224;6.000;2023-06-19T01:38:19;7.13;;;4.77;;
10805;SDS011;5455;53.224;6.000;2023-06-19T01:40:48;6.40;;;5.00;;
10805;SDS011;5455;53.224;6.000;2023-06-19T01:43:17;5.77;;;4.90;;
10805;SDS011;5455;53.224;6.000;2023-06-19T01:45:45;7.13;;;4.73;;
10805;SDS011;5455;53.224;6.000;2023-06-19T01:48:12;6.47;;;5.50;;
10805;SDS011;5455;53.224;6.000;2023-06-19T01:50:41;6.17;;;5.23;;
10805;SDS011;5455;53.224;6.000;2023-06-19T01:53:12;7.17;;;5.10;;
10805;SDS011;5455;53.224;6.000;2023-06-19T01:55:40;6.00;;;5.07;;
10805;SDS011;5455;53.224;6.000;2023-06-19T01:58:07;6.83;;;5.13;;
10805;SDS011;5455;53.224;6.000;2023-06-19T02:00:35;6.50;;;4.63;;
10805;SDS011;5455;53.224;6.000;2023-06-19T02:03:02;6.47;;;4.90;;
10805;SDS011;5455;53.224;6.000;2023-06-19T02:05:30;7.53;;;5.07;;
10805;SDS011;5455;53.224;6.000;2023-06-19T02:08:00;7.10;;;4.70;;
10805;SDS011;5455;53.224;6.000;2023-06-19T02:10:27;7.10;;;5.57;;
10805;SDS011;5455;53.224;6.000;2023-06-19T02:12:55;5.90;;;4.83;;
10805;SDS011;5455;53.224;6.000;2023-06-19T02:15:22;5.97;;;4.70;;
10805;SDS011;5455;53.224;6.000;2023-06-19T02:17:49;7.97;;;5.67;;
10805;SDS011;5455;53.224;6.000;2023-06-19T02:20:22;6.30;;;5.33;;
10805;SDS011;5455;53.224;6.000;2023-06-19T02:22:55;5.23;;;4.50;;
10805;SDS011;5455;53.224;6.000;2023-06-19T02:25:22;6.43;;;5.10;;
10805;SDS011;5455;53.224;6.000;2023-06-19T02:27:49;8.27;;;4.73;;
10805;SDS011;5455;53.224;6.000;2023-06-19T02:30:16;5.70;;;4.87;;
10805;SDS011;5455;53.224;6.000;2023-06-19T02:32:52;7.80;;;4.87;;
10805;SDS011;5455;53.224;6.000;2023-06-19T02:35:19;5.17;;;4.60;;
10805;SDS011;5455;53.224;6.000;2023-06-19T02:37:46;5.37;;;4.67;;
10805;SDS011;5455;53.224;6.000;2023-06-19T02:40:13;6.43;;;5.53;;
10805;SDS011;5455;53.224;6.000;2023-06-19T02:42:41;6.43;;;4.93;;
10805;SDS011;5455;53.224;6.000;2023-06-19T02:45:08;6.27;;;4.83;;
10805;SDS011;5455;53.224;6.000;2023-06-19T02:47:35;6.27;;;4.93;;
10805;SDS011;5455;53.224;6.000;2023-06-19T02:50:04;5.60;;;4.60;;
10805;SDS011;5455;53.224;6.000;2023-06-19T02:52:31;5.60;;;4.67;;
10805;SDS011;5455;53.224;6.000;2023-06-19T02:54:58;8.13;;;5.00;;
10805;SDS011;5455;53.224;6.000;2023-06-19T02:57:26;6.50;;;4.67;;
10805;SDS011;5455;53.224;6.000;2023-06-19T02:59:53;5.80;;;4.57;;
10805;SDS011;5455;53.224;6.000;2023-06-19T03:02:20;7.03;;;5.00;;
10805;SDS011;5455;53.224;6.000;2023-06-19T03:04:47;7.53;;;5.27;;
10805;SDS011;5455;53.224;6.000;2023-06-19T03:07:14;6.77;;;4.80;;
10805;SDS011;5455;53.224;6.000;2023-06-19T03:09:41;8.73;;;5.47;;
10805;SDS011;5455;53.224;6.000;2023-06-19T03:12:08;7.93;;;4.73;;
10805;SDS011;5455;53.224;6.000;2023-06-19T03:14:37;7.10;;;5.10;;
10805;SDS011;5455;53.224;6.000;2023-06-19T03:17:04;6.03;;;4.80;;
10805;SDS011;5455;53.224;6.000;2023-06-19T03:19:31;7.00;;;5.30;;
10805;SDS011;5455;53.224;6.000;2023-06-19T03:21:58;10.17;;;4.80;;
10805;SDS011;5455;53.224;6.000;2023-06-19T03:24:25;5.70;;;4.73;;
10805;SDS011;5455;53.224;6.000;2023-06-19T03:27:00;6.37;;;4.80;;
10805;SDS011;5455;53.224;6.000;2023-06-19T03:29:27;8.43;;;5.10;;
10805;SDS011;5455;53.224;6.000;2023-06-19T03:32:01;7.07;;;4.90;;
10805;SDS011;5455;53.224;6.000;2023-06-19T03:34:31;8.07;;;4.90;;
10805;SDS011;5455;53.224;6.000;2023-06-19T03:37:00;5.33;;;4.53;;
10805;SDS011;5455;53.224;6.000;2023-06-19T03:39:27;7.60;;;4.87;;
10805;SDS011;5455;53.224;6.000;2023-06-19T03:42:01;7.40;;;5.27;;
10805;SDS011;5455;53.224;6.000;2023-06-19T03:44:28;6.47;;;4.57;;
10805;SDS011;5455;53.224;6.000;2023-06-19T03:46:55;7.40;;;5.00;;
10805;SDS011;5455;53.224;6.000;2023-06-19T03:49:22;6.97;;;5.03;;
10805;SDS011;5455;53.224;6.000;2023-06-19T03:51:49;6.77;;;4.83;;
10805;SDS011;5455;53.224;6.000;2023-06-19T03:54:16;6.70;;;4.77;;
10805;SDS011;5455;53.224;6.000;2023-06-19T03:56:43;7.07;;;4.40;;
10805;SDS011;5455;53.224;6.000;2023-06-19T03:59:10;6.97;;;4.37;;
10805;SDS011;5455;53.224;6.000;2023-06-19T04:01:37;5.80;;;4.33;;
10805;SDS011;5455;53.224;6.000;2023-06-19T04:04:05;8.47;;;5.40;;
10805;SDS011;5455;53.224;6.000;2023-06-19T04:06:32;4.90;;;3.87;;
10805;SDS011;5455;53.224;6.000;2023-06-19T04:08:59;4.50;;;3.40;;
10805;SDS011;5455;53.224;6.000;2023-06-19T04:11:26;5.43;;;3.60;;
10805;SDS011;5455;53.224;6.000;2023-06-19T04:13:53;3.17;;;2.70;;
10805;SDS011;5455;53.224;6.000;2023-06-19T04:16:20;2.93;;;2.40;;
10805;SDS011;5455;53.224;6.000;2023-06-19T04:18:47;2.93;;;2.23;;
10805;SDS011;5455;53.224;6.000;2023-06-19T04:21:15;3.77;;;2.53;;
10805;SDS011;5455;53.224;6.000;2023-06-19T04:23:42;4.60;;;2.30;;
10805;SDS011;5455;53.224;6.000;2023-06-19T04:26:11;2.83;;;2.30;;
10805;SDS011;5455;53.224;6.000;2023-06-19T04:28:38;3.67;;;2.20;;
10805;SDS011;5455;53.224;6.000;2023-06-19T04:31:06;4.80;;;1.97;;
10805;SDS011;5455;53.224;6.000;2023-06-19T04:33:33;2.20;;;1.80;;
10805;SDS011;5455;53.224;6.000;2023-06-19T04:36:00;2.37;;;1.60;;
10805;SDS011;5455;53.224;6.000;2023-06-19T04:38:27;2.47;;;1.60;;
10805;SDS011;5455;53.224;6.000;2023-06-19T04:40:54;3.40;;;1.67;;
10805;SDS011;5455;53.224;6.000;2023-06-19T04:43:21;3.40;;;1.80;;
10805;SDS011;5455;53.224;6.000;2023-06-19T04:45:51;2.50;;;1.70;;
10805;SDS011;5455;53.224;6.000;2023-06-19T04:48:18;1.87;;;1.57;;
10805;SDS011;5455;53.224;6.000;2023-06-19T04:50:45;2.43;;;2.00;;
10805;SDS011;5455;53.224;6.000;2023-06-19T04:53:12;3.33;;;1.77;;
10805;SDS011;5455;53.224;6.000;2023-06-19T04:55:39;1.63;;;1.43;;
10805;SDS011;5455;53.224;6.000;2023-06-19T04:58:06;2.30;;;1.77;;
10805;SDS011;5455;53.224;6.000;2023-06-19T05:00:33;3.90;;;2.00;;
10805;SDS011;5455;53.224;6.000;2023-06-19T05:03:00;2.67;;;1.80;;
10805;SDS011;5455;53.224;6.000;2023-06-19T05:05:28;6.60;;;2.97;;
10805;SDS011;5455;53.224;6.000;2023-06-19T05:07:55;3.37;;;1.73;;
10805;SDS011;5455;53.224;6.000;2023-06-19T05:10:22;2.77;;;2.03;;
10805;SDS011;5455;53.224;6.000;2023-06-19T05:12:49;2.70;;;1.87;;
10805;SDS011;5455;53.224;6.000;2023-06-19T05:15:16;2.60;;;2.10;;
10805;SDS011;5455;53.224;6.000;2023-06-19T05:17:43;3.00;;;2.03;;
10805;SDS011;5455;53.224;6.000;2023-06-19T05:20:13;3.63;;;2.40;;
10805;SDS011;5455;53.224;6.000;2023-06-19T05:22:40;3.30;;;2.33;;
10805;SDS011;5455;53.224;6.000;2023-06-19T05:25:07;4.73;;;2.87;;
10805;SDS011;5455;53.224;6.000;2023-06-19T05:27:35;3.10;;;2.13;;
10805;SDS011;5455;53.224;6.000;2023-06-19T05:30:02;4.57;;;2.93;;
10805;SDS011;5455;53.224;6.000;2023-06-19T05:32:30;3.70;;;2.90;;
10805;SDS011;5455;53.224;6.000;2023-06-19T05:34:57;4.20;;;2.93;;
10805;SDS011;5455;53.224;6.000;2023-06-19T05:37:24;4.30;;;3.00;;
10805;SDS011;5455;53.224;6.000;2023-06-19T05:39:53;6.00;;;3.37;;
10805;SDS011;5455;53.224;6.000;2023-06-19T05:42:21;4.40;;;3.20;;
10805;SDS011;5455;53.224;6.000;2023-06-19T05:44:48;5.53;;;3.50;;
10805;SDS011;5455;53.224;6.000;2023-06-19T05:47:15;6.23;;;4.13;;
10805;SDS011;5455;53.224;6.000;2023-06-19T05:49:43;6.90;;;4.17;;
10805;SDS011;5455;53.224;6.000;2023-06-19T05:52:10;8.73;;;5.13;;
10805;SDS011;5455;53.224;6.000;2023-06-19T05:54:37;8.90;;;5.20;;
10805;SDS011;5455;53.224;6.000;2023-06-19T05:57:05;9.80;;;6.07;;
10805;SDS011;5455;53.224;6.000;2023-06-19T05:59:32;10.20;;;6.37;;
10805;SDS011;5455;53.224;6.000;2023-06-19T06:01:59;10.10;;;6.90;;
10805;SDS011;5455;53.224;6.000;2023-06-19T06:04:26;11.93;;;7.93;;
10805;SDS011;5455;53.224;6.000;2023-06-19T06:06:53;13.47;;;8.73;;
10805;SDS011;5455;53.224;6.000;2023-06-19T06:09:20;18.87;;;12.20;;
10805;SDS011;5455;53.224;6.000;2023-06-19T06:11:47;17.37;;;11.13;;
10805;SDS011;5455;53.224;6.000;2023-06-19T06:14:15;15.97;;;11.37;;
10805;SDS011;5455;53.224;6.000;2023-06-19T06:16:42;17.70;;;12.70;;
10805;SDS011;5455;53.224;6.000;2023-06-19T06:19:09;19.10;;;12.87;;
10805;SDS011;5455;53.224;6.000;2023-06-19T06:21:36;19.73;;;12.80;;
10805;SDS011;5455;53.224;6.000;2023-06-19T06:24:03;19.13;;;13.23;;
10805;SDS011;5455;53.224;6.000;2023-06-19T06:26:30;22.80;;;14.63;;
10805;SDS011;5455;53.224;6.000;2023-06-19T06:28:57;20.27;;;14.27;;
10805;SDS011;5455;53.224;6.000;2023-06-19T06:31:24;22.83;;;14.80;;
10805;SDS011;5455;53.224;6.000;2023-06-19T06:33:51;22.90;;;15.90;;
10805;SDS011;5455;53.224;6.000;2023-06-19T06:36:18;22.53;;;14.57;;
10805;SDS011;5455;53.224;6.000;2023-06-19T06:39:01;19.10;;;13.67;;
10805;SDS011;5455;53.224;6.000;2023-06-19T06:41:28;16.53;;;11.97;;
10805;SDS011;5455;53.224;6.000;2023-06-19T06:43:55;13.37;;;8.53;;
10805;SDS011;5455;53.224;6.000;2023-06-19T06:46:22;17.77;;;9.43;;
10805;SDS011;5455;53.224;6.000;2023-06-19T06:48:49;23.63;;;13.93;;
10805;SDS011;5455;53.224;6.000;2023-06-19T06:51:16;20.83;;;13.87;;
10805;SDS011;5455;53.224;6.000;2023-06-19T06:53:43;21.90;;;14.43;;
10805;SDS011;5455;53.224;6.000;2023-06-19T06:56:11;23.23;;;13.57;;
10805;SDS011;5455;53.224;6.000;2023-06-19T06:58:38;25.17;;;13.13;;
10805;SDS011;5455;53.224;6.000;2023-06-19T07:01:06;26.83;;;15.00;;
10805;SDS011;5455;53.224;6.000;2023-06-19T07:03:33;29.10;;;16.27;;
10805;SDS011;5455;53.224;6.000;2023-06-19T07:06:01;19.47;;;11.90;;
10805;SDS011;5455;53.224;6.000;2023-06-19T07:08:29;25.23;;;12.83;;
10805;SDS011;5455;53.224;6.000;2023-06-19T07:10:56;24.77;;;12.97;;
10805;SDS011;5455;53.224;6.000;2023-06-19T07:13:23;20.77;;;12.13;;
10805;SDS011;5455;53.224;6.000;2023-06-19T07:15:50;24.87;;;12.83;;
10805;SDS011;5455;53.224;6.000;2023-06-19T07:18:17;24.87;;;14.13;;
10805;SDS011;5455;53.224;6.000;2023-06-19T07:20:44;20.67;;;11.97;;
10805;SDS011;5455;53.224;6.000;2023-06-19T07:23:11;22.23;;;13.00;;
10805;SDS011;5455;53.224;6.000;2023-06-19T07:25:38;23.13;;;12.03;;
10805;SDS011;5455;53.224;6.000;2023-06-19T07:28:05;23.07;;;11.13;;
10805;SDS011;5455;53.224;6.000;2023-06-19T07:30:32;21.03;;;10.97;;
10805;SDS011;5455;53.224;6.000;2023-06-19T07:32:59;22.10;;;12.93;;
10805;SDS011;5455;53.224;6.000;2023-06-19T07:35:26;23.00;;;11.43;;
10805;SDS011;5455;53.224;6.000;2023-06-19T07:37:53;22.90;;;13.07;;
10805;SDS011;5455;53.224;6.000;2023-06-19T07:40:20;24.07;;;12.67;;
10805;SDS011;5455;53.224;6.000;2023-06-19T07:42:48;19.93;;;11.07;;
10805;SDS011;5455;53.224;6.000;2023-06-19T07:45:15;18.73;;;11.10;;
10805;SDS011;5455;53.224;6.000;2023-06-19T07:47:42;18.77;;;10.30;;
10805;SDS011;5455;53.224;6.000;2023-06-19T07:50:10;19.00;;;10.50;;
10805;SDS011;5455;53.224;6.000;2023-06-19T07:52:36;19.83;;;10.57;;
10805;SDS011;5455;53.224;6.000;2023-06-19T07:55:04;20.07;;;11.40;;
10805;SDS011;5455;53.224;6.000;2023-06-19T07:57:31;19.40;;;11.40;;
10805;SDS011;5455;53.224;6.000;2023-06-19T07:59:58;16.13;;;9.43;;
10805;SDS011;5455;53.224;6.000;2023-06-19T08:02:25;13.43;;;7.93;;
10805;SDS011;5455;53.224;6.000;2023-06-19T08:04:54;14.17;;;8.20;;
10805;SDS011;5455;53.224;6.000;2023-06-19T08:07:21;13.27;;;8.80;;
10805;SDS011;5455;53.224;6.000;2023-06-19T08:09:48;11.60;;;6.93;;
10805;SDS011;5455;53.224;6.000;2023-06-19T08:12:26;10.70;;;6.70;;
10805;SDS011;5455;53.224;6.000;2023-06-19T08:14:53;9.97;;;6.30;;
10805;SDS011;5455;53.224;6.000;2023-06-19T08:17:20;8.13;;;5.80;;
10805;SDS011;5455;53.224;6.000;2023-06-19T08:19:47;12.10;;;5.87;;
10805;SDS011;5455;53.224;6.000;2023-06-19T08:22:15;8.63;;;5.37;;
10805;SDS011;5455;53.224;6.000;2023-06-19T08:24:42;9.07;;;6.13;;
10805;SDS011;5455;53.224;6.000;2023-06-19T08:27:08;7.73;;;5.80;;
10805;SDS011;5455;53.224;6.000;2023-06-19T08:29:36;10.80;;;5.73;;
10805;SDS011;5455;53.224;6.000;2023-06-19T08:32:03;11.37;;;6.53;;
10805;SDS011;5455;53.224;6.000;2023-06-19T08:34:31;10.63;;;5.90;;
10805;SDS011;5455;53.224;6.000;2023-06-19T08:36:58;8.87;;;6.00;;
10805;SDS011;5455;53.224;6.000;2023-06-19T08:39:25;12.57;;;6.33;;
10805;SDS011;5455;53.224;6.000;2023-06-19T08:41:53;8.33;;;5.97;;
10805;SDS011;5455;53.224;6.000;2023-06-19T08:44:20;12.00;;;7.13;;
10805;SDS011;5455;53.224;6.000;2023-06-19T08:46:47;10.90;;;6.60;;
10805;SDS011;5455;53.224;6.000;2023-06-19T08:49:14;11.60;;;6.83;;
10805;SDS011;5455;53.224;6.000;2023-06-19T08:51:43;10.83;;;7.17;;
10805;SDS011;5455;53.224;6.000;2023-06-19T08:54:09;13.60;;;7.57;;
10805;SDS011;5455;53.224;6.000;2023-06-19T08:56:39;12.43;;;8.10;;
10805;SDS011;5455;53.224;6.000;2023-06-19T08:59:10;11.63;;;5.93;;
10805;SDS011;5455;53.224;6.000;2023-06-19T09:01:39;14.90;;;7.87;;
10805;SDS011;5455;53.224;6.000;2023-06-19T09:04:10;12.63;;;7.20;;
10805;SDS011;5455;53.224;6.000;2023-06-19T09:09:15;11.43;;;7.20;;
10805;SDS011;5455;53.224;6.000;2023-06-19T09:11:43;12.97;;;8.37;;
10805;SDS011;5455;53.224;6.000;2023-06-19T09:14:10;13.13;;;7.87;;
10805;SDS011;5455;53.224;6.000;2023-06-19T09:16:38;9.77;;;6.53;;
10805;SDS011;5455;53.224;6.000;2023-06-19T09:19:07;13.93;;;7.37;;
10805;SDS011;5455;53.224;6.000;2023-06-19T09:21:37;9.83;;;6.93;;
10805;SDS011;5455;53.224;6.000;2023-06-19T09:24:05;12.43;;;7.53;;
10805;SDS011;5455;53.224;6.000;2023-06-19T09:26:34;10.77;;;7.73;;
10805;SDS011;5455;53.224;6.000;2023-06-19T09:29:14;12.63;;;6.63;;
10805;SDS011;5455;53.224;6.000;2023-06-19T09:31:47;14.33;;;7.97;;
10805;SDS011;5455;53.224;6.000;2023-06-19T09:34:14;14.53;;;8.03;;
10805;SDS011;5455;53.224;6.000;2023-06-19T09:36:42;12.53;;;7.70;;
10805;SDS011;5455;53.224;6.000;2023-06-19T09:39:12;9.97;;;7.27;;
10805;SDS011;5455;53.224;6.000;2023-06-19T09:41:42;12.90;;;8.40;;
10805;SDS011;5455;53.224;6.000;2023-06-19T09:44:13;15.37;;;7.97;;
10805;SDS011;5455;53.224;6.000;2023-06-19T09:46:44;12.43;;;7.37;;
10805;SDS011;5455;53.224;6.000;2023-06-19T09:49:12;12.53;;;7.73;;
10805;SDS011;5455;53.224;6.000;2023-06-19T09:51:43;12.27;;;7.67;;
10805;SDS011;5455;53.224;6.000;2023-06-19T09:54:10;11.47;;;7.47;;
10805;SDS011;5455;53.224;6.000;2023-06-19T09:56:40;11.70;;;7.70;;
10805;SDS011;5455;53.224;6.000;2023-06-19T09:59:07;14.03;;;7.97;;
10805;SDS011;5455;53.224;6.000;2023-06-19T10:01:36;13.27;;;7.13;;
10805;SDS011;5455;53.224;6.000;2023-06-19T10:04:07;11.60;;;7.37;;
10805;SDS011;5455;53.224;6.000;2023-06-19T10:06:44;13.30;;;7.20;;
10805;SDS011;5455;53.224;6.000;2023-06-19T10:09:13;13.17;;;8.40;;
10805;SDS011;5455;53.224;6.000;2023-06-19T10:11:51;12.97;;;8.07;;
10805;SDS011;5455;53.224;6.000;2023-06-19T10:14:19;12.47;;;7.87;;
10805;SDS011;5455;53.224;6.000;2023-06-19T10:16:48;12.30;;;7.77;;
10805;SDS011;5455;53.224;6.000;2023-06-19T10:19:16;15.27;;;8.50;;
10805;SDS011;5455;53.224;6.000;2023-06-19T10:21:48;12.27;;;8.13;;
10805;SDS011;5455;53.224;6.000;2023-06-19T10:24:17;11.73;;;8.10;;
10805;SDS011;5455;53.224;6.000;2023-06-19T10:26:59;12.80;;;7.30;;
10805;SDS011;5455;53.224;6.000;2023-06-19T10:29:37;14.37;;;7.63;;
10805;SDS011;5455;53.224;6.000;2023-06-19T10:32:20;12.00;;;7.87;;
10805;SDS011;5455;53.224;6.000;2023-06-19T10:34:48;17.23;;;8.90;;
10805;SDS011;5455;53.224;6.000;2023-06-19T10:37:18;14.93;;;9.47;;
10805;SDS011;5455;53.224;6.000;2023-06-19T10:39:58;13.40;;;8.27;;
10805;SDS011;5455;53.224;6.000;2023-06-19T10:42:25;13.63;;;7.83;;
10805;SDS011;5455;53.224;6.000;2023-06-19T10:44:58;14.83;;;9.23;;
10805;SDS011;5455;53.224;6.000;2023-06-19T10:47:28;12.33;;;8.63;;
10805;SDS011;5455;53.224;6.000;2023-06-19T10:49:55;11.67;;;7.20;;
10805;SDS011;5455;53.224;6.000;2023-06-19T10:52:23;13.60;;;8.13;;
10805;SDS011;5455;53.224;6.000;2023-06-19T10:54:54;13.73;;;7.47;;
10805;SDS011;5455;53.224;6.000;2023-06-19T10:57:28;9.63;;;6.83;;
10805;SDS011;5455;53.224;6.000;2023-06-19T10:59:56;12.23;;;7.90;;
10805;SDS011;5455;53.224;6.000;2023-06-19T11:02:24;13.23;;;9.40;;
10805;SDS011;5455;53.224;6.000;2023-06-19T11:04:53;14.20;;;8.90;;
10805;SDS011;5455;53.224;6.000;2023-06-19T11:07:23;14.20;;;10.30;;
10805;SDS011;5455;53.224;6.000;2023-06-19T11:09:50;18.70;;;11.00;;
10805;SDS011;5455;53.224;6.000;2023-06-19T11:12:21;18.43;;;10.07;;
10805;SDS011;5455;53.224;6.000;2023-06-19T11:14:48;17.57;;;9.70;;
10805;SDS011;5455;53.224;6.000;2023-06-19T11:17:16;17.73;;;9.10;;
10805;SDS011;5455;53.224;6.000;2023-06-19T11:19:49;17.47;;;9.87;;
10805;SDS011;5455;53.224;6.000;2023-06-19T11:22:17;16.30;;;9.03;;
10805;SDS011;5455;53.224;6.000;2023-06-19T11:24:44;17.30;;;10.10;;
10805;SDS011;5455;53.224;6.000;2023-06-19T11:27:23;17.47;;;9.50;;
10805;SDS011;5455;53.224;6.000;2023-06-19T11:29:54;20.43;;;10.70;;
10805;SDS011;5455;53.224;6.000;2023-06-19T11:32:23;18.80;;;11.73;;
10805;SDS011;5455;53.224;6.000;2023-06-19T11:34:51;15.10;;;10.03;;
10805;SDS011;5455;53.224;6.000;2023-06-19T11:37:20;15.97;;;10.50;;
10805;SDS011;5455;53.224;6.000;2023-06-19T11:39:50;13.97;;;8.80;;
10805;SDS011;5455;53.224;6.000;2023-06-19T11:42:19;14.67;;;8.63;;
10805;SDS011;5455;53.224;6.000;2023-06-19T11:44:56;13.47;;;8.30;;
10805;SDS011;5455;53.224;6.000;2023-06-19T11:47:24;34.10;;;11.30;;
10805;SDS011;5455;53.224;6.000;2023-06-19T11:49:51;13.23;;;8.07;;
10805;SDS011;5455;53.224;6.000;2023-06-19T11:52:18;10.97;;;8.07;;
10805;SDS011;5455;53.224;6.000;2023-06-19T11:54:46;14.57;;;9.47;;
10805;SDS011;5455;53.224;6.000;2023-06-19T11:57:13;10.63;;;7.53;;
10805;SDS011;5455;53.224;6.000;2023-06-19T11:59:40;9.60;;;6.90;;
10805;SDS011;5455;53.224;6.000;2023-06-19T12:02:08;10.13;;;6.90;;
10805;SDS011;5455;53.224;6.000;2023-06-19T12:04:35;11.40;;;7.40;;
10805;SDS011;5455;53.224;6.000;2023-06-19T12:07:03;8.07;;;6.10;;
10805;SDS011;5455;53.224;6.000;2023-06-19T12:09:30;9.63;;;5.90;;
10805;SDS011;5455;53.224;6.000;2023-06-19T12:12:01;9.70;;;6.23;;
10805;SDS011;5455;53.224;6.000;2023-06-19T12:14:28;11.57;;;6.73;;
10805;SDS011;5455;53.224;6.000;2023-06-19T12:16:55;12.50;;;7.73;;
10805;SDS011;5455;53.224;6.000;2023-06-19T12:19:25;8.63;;;6.43;;
10805;SDS011;5455;53.224;6.000;2023-06-19T12:21:53;9.40;;;6.63;;
10805;SDS011;5455;53.224;6.000;2023-06-19T12:24:20;13.13;;;7.33;;
10805;SDS011;5455;53.224;6.000;2023-06-19T12:26:47;13.43;;;6.40;;
10805;SDS011;5455;53.224;6.000;2023-06-19T12:29:14;12.33;;;7.10;;
10805;SDS011;5455;53.224;6.000;2023-06-19T12:31:41;7.67;;;5.43;;
10805;SDS011;5455;53.224;6.000;2023-06-19T12:34:08;7.30;;;5.30;;
10805;SDS011;5455;53.224;6.000;2023-06-19T12:36:55;7.23;;;5.93;;
10805;SDS011;5455;53.224;6.000;2023-06-19T12:39:24;5.93;;;4.83;;
10805;SDS011;5455;53.224;6.000;2023-06-19T12:41:51;12.07;;;5.50;;
10805;SDS011;5455;53.224;6.000;2023-06-19T12:44:20;9.80;;;5.27;;
10805;SDS011;5455;53.224;6.000;2023-06-19T12:46:48;8.30;;;5.53;;
10805;SDS011;5455;53.224;6.000;2023-06-19T12:49:15;11.93;;;6.10;;
10805;SDS011;5455;53.224;6.000;2023-06-19T12:51:42;8.13;;;5.40;;
10805;SDS011;5455;53.224;6.000;2023-06-19T12:54:09;9.13;;;5.97;;
10805;SDS011;5455;53.224;6.000;2023-06-19T12:56:36;7.53;;;4.80;;
10805;SDS011;5455;53.224;6.000;2023-06-19T12:59:03;8.80;;;5.97;;
10805;SDS011;5455;53.224;6.000;2023-06-19T13:01:30;7.97;;;4.93;;
10805;SDS011;5455;53.224;6.000;2023-06-19T13:03:58;6.20;;;4.60;;
10805;SDS011;5455;53.224;6.000;2023-06-19T13:06:25;9.27;;;5.20;;
10805;SDS011;5455;53.224;6.000;2023-06-19T13:08:52;6.83;;;5.00;;
10805;SDS011;5455;53.224;6.000;2023-06-19T13:11:19;7.53;;;5.00;;
10805;SDS011;5455;53.224;6.000;2023-06-19T13:13:46;6.77;;;4.63;;
10805;SDS011;5455;53.224;6.000;2023-06-19T13:16:13;8.13;;;5.30;;
10805;SDS011;5455;53.224;6.000;2023-06-19T13:18:42;7.87;;;5.03;;
10805;SDS011;5455;53.224;6.000;2023-06-19T13:21:10;8.83;;;4.77;;
10805;SDS011;5455;53.224;6.000;2023-06-19T13:23:38;6.07;;;4.40;;
10805;SDS011;5455;53.224;6.000;2023-06-19T13:26:05;7.30;;;5.30;;
10805;SDS011;5455;53.224;6.000;2023-06-19T13:28:32;7.93;;;5.20;;
10805;SDS011;5455;53.224;6.000;2023-06-19T13:30:59;7.67;;;5.50;;
10805;SDS011;5455;53.224;6.000;2023-06-19T13:33:26;9.33;;;5.47;;
10805;SDS011;5455;53.224;6.000;2023-06-19T13:35:53;7.80;;;5.23;;
10805;SDS011;5455;53.224;6.000;2023-06-19T13:38:20;14.60;;;9.50;;
10805;SDS011;5455;53.224;6.000;2023-06-19T13:40:48;7.63;;;4.77;;
10805;SDS011;5455;53.224;6.000;2023-06-19T13:43:15;11.10;;;5.30;;
10805;SDS011;5455;53.224;6.000;2023-06-19T13:45:43;7.63;;;5.13;;
10805;SDS011;5455;53.224;6.000;2023-06-19T13:48:10;9.87;;;4.67;;
10805;SDS011;5455;53.224;6.000;2023-06-19T13:50:37;6.77;;;4.57;;
10805;SDS011;5455;53.224;6.000;2023-06-19T13:53:04;8.00;;;5.33;;
10805;SDS011;5455;53.224;6.000;2023-06-19T13:55:31;7.17;;;4.53;;
10805;SDS011;5455;53.224;6.000;2023-06-19T13:57:58;5.87;;;4.37;;
10805;SDS011;5455;53.224;6.000;2023-06-19T14:00:25;9.40;;;5.37;;
10805;SDS011;5455;53.224;6.000;2023-06-19T14:02:52;7.37;;;4.93;;
10805;SDS011;5455;53.224;6.000;2023-06-19T14:05:20;7.07;;;4.47;;
10805;SDS011;5455;53.224;6.000;2023-06-19T14:07:47;5.27;;;4.03;;
10805;SDS011;5455;53.224;6.000;2023-06-19T14:10:14;6.57;;;4.57;;
10805;SDS011;5455;53.224;6.000;2023-06-19T14:12:41;5.33;;;3.60;;
10805;SDS011;5455;53.224;6.000;2023-06-19T14:15:09;5.77;;;3.80;;
10805;SDS011;5455;53.224;6.000;2023-06-19T14:17:36;7.30;;;3.80;;
10805;SDS011;5455;53.224;6.000;2023-06-19T14:20:03;6.13;;;3.43;;
10805;SDS011;5455;53.224;6.000;2023-06-19T14:22:32;5.73;;;3.40;;
10805;SDS011;5455;53.224;6.000;2023-06-19T14:24:59;5.87;;;3.87;;
10805;SDS011;5455;53.224;6.000;2023-06-19T14:27:28;7.33;;;3.97;;
10805;SDS011;5455;53.224;6.000;2023-06-19T14:29:55;4.93;;;3.00;;
10805;SDS011;5455;53.224;6.000;2023-06-19T14:32:23;5.73;;;3.23;;
10805;SDS011;5455;53.224;6.000;2023-06-19T14:34:50;6.63;;;3.63;;
10805;SDS011;5455;53.224;6.000;2023-06-19T14:37:18;5.20;;;3.37;;
10805;SDS011;5455;53.224;6.000;2023-06-19T14:39:45;4.37;;;2.97;;
10805;SDS011;5455;53.224;6.000;2023-06-19T14:42:16;4.67;;;2.90;;
10805;SDS011;5455;53.224;6.000;2023-06-19T14:44:43;4.80;;;3.60;;
10805;SDS011;5455;53.224;6.000;2023-06-19T14:47:09;6.37;;;3.47;;
10805;SDS011;5455;53.224;6.000;2023-06-19T14:49:37;6.97;;;3.70;;
10805;SDS011;5455;53.224;6.000;2023-06-19T14:52:05;8.30;;;3.30;;
10805;SDS011;5455;53.224;6.000;2023-06-19T14:54:33;6.63;;;3.97;;
10805;SDS011;5455;53.224;6.000;2023-06-19T14:57:00;4.93;;;3.37;;
10805;SDS011;5455;53.224;6.000;2023-06-19T14:59:27;7.43;;;4.00;;
10805;SDS011;5455;53.224;6.000;2023-06-19T15:01:54;8.37;;;3.83;;
10805;SDS011;5455;53.224;6.000;2023-06-19T15:04:21;5.97;;;3.67;;
10805;SDS011;5455;53.224;6.000;2023-06-19T15:06:49;6.60;;;3.93;;